createdAt,value
2019-06-26T00:00:20.375Z,12.93
2019-06-26T00:03:26.143Z,13.03
2019-06-26T00:06:31.854Z,14.70
2019-06-26T00:09:37.502Z,15.45
2019-06-26T00:12:44.794Z,17.90
2019-06-26T00:15:50.329Z,16.23
2019-06-26T00:18:55.998Z,18.75
2019-06-26T00:22:01.779Z,15.03
2019-06-26T00:25:08.638Z,16.57
2019-06-26T00:28:15.314Z,13.62
2019-06-26T00:31:22.104Z,20.62
2019-06-26T00:34:27.752Z,17.12
2019-06-26T00:37:33.472Z,15.35
2019-06-26T00:40:40.214Z,15.40
2019-06-26T00:43:47.680Z,15.53
2019-06-26T00:46:53.326Z,13.98
2019-06-26T00:49:59.970Z,14.43
2019-06-26T00:53:05.869Z,17.87
2019-06-26T00:56:11.689Z,15.90
2019-06-26T00:59:18.315Z,13.50
2019-06-26T01:02:23.963Z,16.27
2019-06-26T01:05:29.617Z,15.53
2019-06-26T01:08:35.318Z,17.23
2019-06-26T01:11:41.139Z,13.15
2019-06-26T01:14:46.862Z,14.98
2019-06-26T01:17:52.738Z,15.53
2019-06-26T01:20:58.403Z,15.55
2019-06-26T01:24:05.123Z,14.70
2019-06-26T01:27:10.839Z,15.45
2019-06-26T01:30:17.862Z,16.62
2019-06-26T01:33:23.419Z,15.05
2019-06-26T01:36:29.023Z,15.08
2019-06-26T01:39:35.771Z,13.38
2019-06-26T01:42:41.327Z,16.85
2019-06-26T01:45:46.975Z,15.20
2019-06-26T01:48:52.602Z,16.37
2019-06-26T01:51:58.310Z,16.35
2019-06-26T01:55:03.931Z,13.03
2019-06-26T01:58:09.697Z,17.05
2019-06-26T02:01:16.806Z,14.58
2019-06-26T02:04:24.067Z,15.70
2019-06-26T02:07:29.651Z,17.37
2019-06-26T02:10:37.745Z,14.45
2019-06-26T02:13:43.383Z,15.45
2019-06-26T02:16:49.171Z,14.68
2019-06-26T02:19:54.897Z,14.25
2019-06-26T02:23:01.609Z,13.83
2019-06-26T02:26:08.927Z,16.90
2019-06-26T02:29:14.483Z,14.95
2019-06-26T02:32:20.179Z,15.32
2019-06-26T02:35:26.691Z,15.50
2019-06-26T02:38:32.318Z,15.65
2019-06-26T02:41:37.867Z,15.72
2019-06-26T02:44:53.490Z,16.37
2019-06-26T02:47:52.345Z,14.40
2019-06-26T02:50:57.995Z,17.07
2019-06-26T02:54:03.689Z,15.08
2019-06-26T02:57:09.174Z,15.53
2019-06-26T03:00:15.013Z,15.83
2019-06-26T03:03:20.615Z,15.90
2019-06-26T03:06:26.254Z,15.30
2019-06-26T03:09:31.854Z,17.10
2019-06-26T03:12:37.546Z,18.87
2019-06-26T03:15:43.299Z,16.52
2019-06-26T03:18:49.951Z,16.25
2019-06-26T03:21:56.498Z,17.27
2019-06-26T03:25:03.242Z,17.70
2019-06-26T03:28:08.983Z,17.35
2019-06-26T03:31:14.805Z,18.05
2019-06-26T03:34:20.465Z,18.32
2019-06-26T03:37:27.787Z,17.48
2019-06-26T03:40:35.175Z,18.12
2019-06-26T03:43:40.835Z,17.30
2019-06-26T03:46:46.700Z,16.35
2019-06-26T03:49:53.335Z,17.35
2019-06-26T03:52:59.025Z,16.37
2019-06-26T03:56:04.994Z,16.30
2019-06-26T03:59:11.962Z,17.77
2019-06-26T04:02:17.616Z,16.50
2019-06-26T04:05:24.235Z,16.90
2019-06-26T04:08:30.086Z,16.00
2019-06-26T04:11:36.714Z,22.25
2019-06-26T04:14:42.345Z,17.52
2019-06-26T04:17:48.059Z,19.02
2019-06-26T04:20:55.350Z,18.40
2019-06-26T04:24:01.837Z,18.55
2019-06-26T04:27:07.537Z,18.70
2019-06-26T04:30:13.677Z,18.95
2019-06-26T04:33:19.355Z,20.08
2019-06-26T04:36:26.753Z,20.60
2019-06-26T04:39:33.482Z,17.67
2019-06-26T04:42:40.326Z,20.97
2019-06-26T04:45:57.768Z,21.23
2019-06-26T04:48:54.146Z,18.57
2019-06-26T04:52:00.866Z,24.82
2019-06-26T04:55:06.984Z,19.90
2019-06-26T04:58:12.501Z,19.80
2019-06-26T05:01:18.102Z,23.80
2019-06-26T05:04:25.500Z,20.45
2019-06-26T05:07:32.122Z,19.87
2019-06-26T05:10:38.670Z,18.80
2019-06-26T05:13:44.314Z,19.15
2019-06-26T05:16:51.689Z,17.15
2019-06-26T05:19:57.311Z,20.48
2019-06-26T05:23:02.860Z,18.02
2019-06-26T05:26:08.513Z,17.57
2019-06-26T05:29:15.103Z,17.32
2019-06-26T05:32:20.744Z,18.07
2019-06-26T05:35:26.363Z,21.50
2019-06-26T05:38:35.566Z,24.12
2019-06-26T05:41:43.599Z,26.65
2019-06-26T05:44:49.230Z,20.88
2019-06-26T05:47:56.710Z,19.42
2019-06-26T05:51:02.376Z,20.77
2019-06-26T05:54:08.120Z,20.75
2019-06-26T05:57:15.031Z,18.52
2019-06-26T06:00:20.954Z,19.02
2019-06-26T06:03:26.513Z,21.90
2019-06-26T06:06:41.492Z,20.20
2019-06-26T06:09:40.628Z,19.50
2019-06-26T06:12:47.678Z,16.00
2019-06-26T06:15:53.298Z,18.05
2019-06-26T06:18:59.042Z,16.82
2019-06-26T06:22:06.523Z,16.57
2019-06-26T06:25:12.382Z,16.73
2019-06-26T06:28:19.778Z,16.17
2019-06-26T06:31:26.446Z,17.77
2019-06-26T06:34:32.122Z,17.82
2019-06-26T06:37:37.786Z,17.17
2019-06-26T06:40:43.437Z,16.75
2019-06-26T06:43:50.125Z,16.62
2019-06-26T06:47:03.929Z,18.42
2019-06-26T06:50:04.053Z,18.10
2019-06-26T06:53:09.627Z,17.48
2019-06-26T06:56:15.881Z,15.43
2019-06-26T06:59:21.541Z,15.05
2019-06-26T07:02:27.219Z,15.20
2019-06-26T07:05:32.856Z,14.95
2019-06-26T07:08:38.613Z,14.80
2019-06-26T07:11:45.769Z,13.95
2019-06-26T07:14:51.339Z,14.60
2019-06-26T07:17:57.000Z,14.73
2019-06-26T07:21:04.067Z,14.38
2019-06-26T07:24:09.737Z,13.60
2019-06-26T07:27:15.386Z,16.15
2019-06-26T07:30:21.777Z,14.00
2019-06-26T07:33:28.650Z,13.38
2019-06-26T07:36:35.347Z,13.13
2019-06-26T07:39:40.965Z,13.20
2019-06-26T07:42:47.674Z,14.18
2019-06-26T07:45:53.270Z,12.73
2019-06-26T07:48:58.922Z,13.30
2019-06-26T07:52:04.807Z,15.43
2019-06-26T07:55:12.301Z,13.80
2019-06-26T07:58:19.272Z,13.65
2019-06-26T08:01:24.932Z,12.05
2019-06-26T08:04:30.709Z,13.90
2019-06-26T08:07:38.669Z,12.23
2019-06-26T08:10:44.495Z,11.68
2019-06-26T08:13:50.267Z,11.48
2019-06-26T08:16:55.856Z,13.03
2019-06-26T08:20:01.530Z,12.78
2019-06-26T08:23:07.204Z,11.10
2019-06-26T08:26:12.947Z,10.45
2019-06-26T08:29:18.596Z,12.43
2019-06-26T08:32:26.051Z,11.97
2019-06-26T08:35:31.536Z,11.25
2019-06-26T08:38:38.286Z,11.60
2019-06-26T08:41:44.861Z,11.43
2019-06-26T08:44:50.460Z,10.82
2019-06-26T08:47:57.926Z,10.50
2019-06-26T08:51:03.728Z,10.40
2019-06-26T08:54:11.121Z,10.68
2019-06-26T08:57:18.477Z,10.20
2019-06-26T09:00:24.318Z,10.88
2019-06-26T09:03:33.423Z,9.88
2019-06-26T09:06:40.073Z,10.53
2019-06-26T09:09:46.731Z,17.42
2019-06-26T09:12:53.481Z,9.85
2019-06-26T09:15:59.147Z,9.58
2019-06-26T09:19:04.927Z,9.98
2019-06-26T09:22:11.536Z,8.98
2019-06-26T09:25:22.147Z,9.53
2019-06-26T09:28:25.482Z,12.03
2019-06-26T09:31:32.195Z,10.25
2019-06-26T09:34:39.627Z,9.63
2019-06-26T09:37:47.211Z,9.35
2019-06-26T09:40:52.770Z,11.30
2019-06-26T09:43:59.867Z,10.60
2019-06-26T09:47:07.615Z,9.58
2019-06-26T09:50:13.614Z,9.60
2019-06-26T09:53:19.956Z,9.45
2019-06-26T09:56:27.579Z,9.00
2019-06-26T09:59:34.226Z,9.05
2019-06-26T10:02:40.688Z,10.48
2019-06-26T10:05:48.023Z,9.58
2019-06-26T10:08:54.681Z,8.98
2019-06-26T10:12:01.035Z,9.43
2019-06-26T10:15:09.010Z,9.55
2019-06-26T10:18:14.772Z,9.55
2019-06-26T10:21:23.574Z,8.15
2019-06-26T10:24:30.467Z,9.05
2019-06-26T10:27:37.380Z,9.53
2019-06-26T10:30:48.872Z,9.13
2019-06-26T10:33:55.363Z,8.20
2019-06-26T10:37:01.631Z,8.50
2019-06-26T10:40:08.353Z,8.65
2019-06-26T10:43:16.251Z,8.28
2019-06-26T10:46:22.748Z,8.58
2019-06-26T10:49:29.561Z,8.10
2019-06-26T10:52:37.436Z,8.15
2019-06-26T10:55:43.758Z,8.13
2019-06-26T10:58:50.181Z,7.40
2019-06-26T11:01:58.043Z,7.72
2019-06-26T11:05:08.425Z,7.80
2019-06-26T11:08:14.545Z,7.90
2019-06-26T11:11:21.239Z,7.37
2019-06-26T11:14:26.902Z,7.20
2019-06-26T11:17:32.552Z,7.62
2019-06-26T11:20:41.198Z,7.50
2019-06-26T11:23:48.129Z,6.70
2019-06-26T11:26:53.811Z,7.15
2019-06-26T11:30:00.499Z,7.50
2019-06-26T11:33:06.242Z,7.30
2019-06-26T11:36:13.442Z,7.00
2019-06-26T11:39:20.622Z,7.35
2019-06-26T11:42:26.264Z,6.87
2019-06-26T11:45:35.564Z,6.75
2019-06-26T11:48:42.292Z,6.75
2019-06-26T11:51:49.000Z,6.50
2019-06-26T11:55:02.728Z,6.58
2019-06-26T11:58:01.902Z,6.47
2019-06-26T12:01:07.696Z,6.05
2019-06-26T12:04:16.759Z,6.60
2019-06-26T12:07:24.286Z,6.08
2019-06-26T12:10:31.709Z,6.20
2019-06-26T12:13:38.225Z,6.40
2019-06-26T12:16:44.422Z,5.78
2019-06-26T12:19:50.660Z,5.55
2019-06-26T12:22:56.771Z,5.87
2019-06-26T12:26:03.685Z,5.95
2019-06-26T12:29:11.506Z,5.90
2019-06-26T12:32:17.887Z,7.22
2019-06-26T12:35:24.879Z,5.45
2019-06-26T12:38:31.000Z,5.78
2019-06-26T12:41:39.335Z,5.30
2019-06-26T12:44:45.446Z,5.40
2019-06-26T12:47:51.634Z,5.30
2019-06-26T12:50:57.606Z,5.75
2019-06-26T12:54:03.487Z,5.30
2019-06-26T12:57:09.059Z,5.30
2019-06-26T13:00:16.494Z,5.03
2019-06-26T13:03:23.034Z,6.05
2019-06-26T13:06:28.585Z,5.83
2019-06-26T13:09:34.289Z,8.00
2019-06-26T13:12:45.491Z,9.48
2019-06-26T13:15:51.387Z,11.78
2019-06-26T13:18:57.039Z,12.07
2019-06-26T13:22:02.695Z,21.97
2019-06-26T13:25:09.983Z,54.50
2019-06-26T13:28:15.623Z,89.83
2019-06-26T13:31:21.292Z,58.50
2019-06-26T13:34:26.992Z,67.25
2019-06-26T13:37:32.591Z,80.20
2019-06-26T13:40:41.116Z,61.68
2019-06-26T13:43:46.991Z,62.13
2019-06-26T13:46:52.896Z,57.88
2019-06-26T13:49:59.386Z,58.80
2019-06-26T13:53:05.749Z,62.58
2019-06-26T13:56:13.475Z,62.48
2019-06-26T13:59:19.444Z,61.00
2019-06-26T14:02:25.828Z,59.20
2019-06-26T14:05:33.841Z,55.23
2019-06-26T14:08:40.113Z,67.22
2019-06-26T14:11:46.043Z,61.58
2019-06-26T14:14:57.817Z,68.00
2019-06-26T14:18:00.189Z,50.40
2019-06-26T14:21:06.574Z,57.35
2019-06-26T14:24:12.639Z,57.17
2019-06-26T14:27:19.287Z,57.45
2019-06-26T14:30:28.079Z,56.55
2019-06-26T14:33:35.237Z,55.92
2019-06-26T14:36:40.915Z,69.25
2019-06-26T14:39:47.615Z,75.52
2019-06-26T14:42:53.315Z,56.28
2019-06-26T14:45:59.106Z,39.83
2019-06-26T14:49:04.700Z,39.67
2019-06-26T14:52:11.280Z,53.95
2019-06-26T14:55:17.770Z,43.40
2019-06-26T14:58:23.454Z,46.95
2019-06-26T15:01:29.106Z,36.33
2019-06-26T15:04:35.818Z,42.43
2019-06-26T15:07:42.458Z,45.45
2019-06-26T15:10:48.187Z,26.65
2019-06-26T15:13:53.816Z,37.93
2019-06-26T15:16:59.531Z,39.65
2019-06-26T15:20:08.155Z,40.25
2019-06-26T15:23:15.552Z,35.92
2019-06-26T15:26:23.043Z,28.83
2019-06-26T15:29:28.684Z,34.45
2019-06-26T15:32:34.350Z,34.10
2019-06-26T15:35:39.937Z,27.82
2019-06-26T15:38:46.661Z,29.35
2019-06-26T15:41:53.255Z,30.92
2019-06-26T15:44:58.877Z,33.35
2019-06-26T15:48:04.555Z,27.90
2019-06-26T15:51:21.176Z,28.00
2019-06-26T15:54:27.873Z,26.37
2019-06-26T15:57:33.571Z,25.45
2019-06-26T16:00:39.427Z,23.40
2019-06-26T16:03:45.087Z,28.55
2019-06-26T16:06:51.732Z,26.12
2019-06-26T16:09:57.452Z,26.35
2019-06-26T16:13:02.903Z,30.25
2019-06-26T16:16:09.947Z,27.60
2019-06-26T16:19:17.518Z,26.00
2019-06-26T16:22:32.314Z,26.87
2019-06-26T16:25:32.027Z,29.05
2019-06-26T16:28:37.875Z,25.23
2019-06-26T16:31:44.911Z,23.12
2019-06-26T16:34:50.516Z,26.00
2019-06-26T16:37:56.163Z,22.65
2019-06-26T16:41:02.723Z,23.18
2019-06-26T16:44:12.093Z,19.82
2019-06-26T16:47:19.104Z,23.02
2019-06-26T16:50:25.621Z,21.73
2019-06-26T16:53:31.387Z,22.07
2019-06-26T16:56:38.850Z,21.25
2019-06-26T16:59:44.566Z,21.33
2019-06-26T17:02:52.350Z,21.65
2019-06-26T17:06:00.800Z,32.08
2019-06-26T17:09:09.432Z,22.77
2019-06-26T17:12:16.168Z,29.77
2019-06-26T17:15:22.018Z,28.15
2019-06-26T17:18:28.310Z,30.97
2019-06-26T17:21:35.538Z,23.80
2019-06-26T17:24:42.858Z,23.00
2019-06-26T17:27:48.580Z,22.52
2019-06-26T17:30:54.359Z,24.80
2019-06-26T17:34:01.559Z,21.55
2019-06-26T17:37:08.163Z,19.17
2019-06-26T17:40:14.431Z,17.92
2019-06-26T17:43:20.815Z,20.02
2019-06-26T17:46:26.640Z,18.87
2019-06-26T17:49:32.539Z,20.45
2019-06-26T17:52:39.334Z,20.35
2019-06-26T17:55:44.969Z,19.65
2019-06-26T17:58:50.741Z,18.07
2019-06-26T18:01:56.371Z,17.73
2019-06-26T18:05:02.042Z,13.72
2019-06-26T18:08:09.859Z,18.70
2019-06-26T18:11:15.447Z,15.70
2019-06-26T18:14:22.558Z,14.40
2019-06-26T18:17:29.371Z,12.85
2019-06-26T18:20:37.466Z,14.23
2019-06-26T18:23:43.245Z,17.05
2019-06-26T18:26:50.003Z,14.05
2019-06-26T18:29:55.813Z,15.25
2019-06-26T18:33:01.595Z,16.40
2019-06-26T18:36:09.243Z,14.20
2019-06-26T18:39:15.092Z,14.47
2019-06-26T18:42:20.798Z,11.65
2019-06-26T18:45:26.601Z,8.95
2019-06-26T18:48:32.667Z,14.25
2019-06-26T18:51:38.379Z,10.48
2019-06-26T18:54:44.166Z,11.00
2019-06-26T18:57:49.862Z,10.80
2019-06-26T19:00:56.168Z,15.03
2019-06-26T19:04:01.946Z,9.83
2019-06-26T19:07:07.555Z,9.35
2019-06-26T19:10:13.351Z,12.53
2019-06-26T19:13:20.378Z,11.83
2019-06-26T19:16:26.365Z,9.53
2019-06-26T19:19:32.004Z,10.38
2019-06-26T19:22:37.675Z,9.58
2019-06-26T19:25:43.342Z,9.38
2019-06-26T19:28:48.982Z,10.95
2019-06-26T19:31:54.599Z,8.90
2019-06-26T19:35:07.991Z,11.85
2019-06-26T19:38:09.020Z,9.85
2019-06-26T19:41:15.107Z,10.15
2019-06-26T19:44:21.249Z,11.33
2019-06-26T19:47:28.955Z,13.48
2019-06-26T19:50:35.548Z,12.45
2019-06-26T19:53:43.394Z,8.70
2019-06-26T19:56:49.715Z,12.13
2019-06-26T19:59:56.046Z,10.70
2019-06-26T20:03:03.922Z,8.75
2019-06-26T20:06:10.064Z,9.13
2019-06-26T20:09:16.278Z,8.13
2019-06-26T20:12:22.499Z,8.55
2019-06-26T20:15:29.260Z,9.83
2019-06-26T20:18:35.771Z,12.10
2019-06-26T20:21:41.917Z,7.22
2019-06-26T20:24:49.342Z,8.45
2019-06-26T20:27:57.429Z,8.83
2019-06-26T20:31:08.542Z,6.72
2019-06-26T20:34:14.809Z,8.03
2019-06-26T20:37:21.289Z,9.08
2019-06-26T20:40:29.107Z,7.37
2019-06-26T20:43:35.870Z,9.13
2019-06-26T20:46:42.600Z,9.33
2019-06-26T20:49:53.252Z,20.92
2019-06-26T20:52:56.298Z,51.63
2019-06-26T20:56:05.528Z,31.85
2019-06-26T20:59:10.590Z,18.87
2019-06-26T21:02:16.879Z,21.70
2019-06-26T21:05:23.020Z,15.43
2019-06-26T21:08:29.708Z,13.03
2019-06-26T21:11:37.485Z,10.20
2019-06-26T21:14:44.931Z,14.18
2019-06-26T21:17:51.318Z,8.95
2019-06-26T21:20:57.218Z,10.18
2019-06-26T21:24:03.290Z,10.50
2019-06-26T21:27:09.448Z,11.63
2019-06-26T21:30:16.077Z,9.00
2019-06-26T21:33:22.055Z,8.53
2019-06-26T21:36:29.493Z,8.05
2019-06-26T21:39:35.339Z,7.37
2019-06-26T21:42:41.997Z,8.45
2019-06-26T21:45:50.145Z,9.38
2019-06-26T21:48:56.533Z,9.05
2019-06-26T21:52:02.487Z,7.97
2019-06-26T21:55:09.208Z,7.42
2019-06-26T21:58:33.980Z,7.65
2019-06-26T22:01:58.280Z,3.95
2019-06-26T22:05:22.378Z,6.37
2019-06-26T22:08:48.416Z,6.87
2019-06-26T22:11:55.984Z,4.40
2019-06-26T22:15:02.706Z,7.62
2019-06-26T22:18:10.420Z,5.47
2019-06-26T22:21:16.238Z,4.00
2019-06-26T22:24:22.189Z,6.08
2019-06-26T22:27:29.406Z,7.15
2019-06-26T22:30:37.085Z,3.80
2019-06-26T22:33:43.294Z,4.12
2019-06-26T22:36:52.195Z,3.85
2019-06-26T22:39:57.875Z,3.75
2019-06-26T22:43:04.404Z,5.72
2019-06-26T22:46:11.991Z,6.90
2019-06-26T22:49:18.415Z,5.15
2019-06-26T22:52:25.203Z,4.42
2019-06-26T22:55:30.951Z,7.45
2019-06-26T22:58:38.488Z,4.45
2019-06-26T23:01:44.142Z,5.65
2019-06-26T23:04:51.505Z,9.35
2019-06-26T23:07:57.156Z,8.75
2019-06-26T23:11:03.780Z,21.17
2019-06-26T23:14:14.684Z,11.55
2019-06-26T23:17:20.455Z,13.88
2019-06-26T23:20:27.629Z,9.35
2019-06-26T23:23:33.391Z,9.05
2019-06-26T23:26:39.059Z,11.15
2019-06-26T23:29:44.741Z,12.35
2019-06-26T23:37:30.491Z,8.60
2019-06-26T23:40:38.151Z,8.58
2019-06-26T23:43:43.773Z,10.15
2019-06-26T23:46:49.358Z,11.57
2019-06-26T23:49:56.823Z,8.43
2019-06-26T23:53:02.574Z,7.37
2019-06-26T23:56:08.280Z,9.70
2019-06-26T23:59:13.858Z,8.00
